RKPK

Gimhae International Airport

Busan, South Korea
TAF RKPK 201700Z 2018/2124 30006KT 9999 FEW030 TN11/2021Z TX25/2105Z BECMG 2102/2103 18010KT BECMG 2111/2112 30006KT
Issued Valid From Valid To
Apr-20 @ 17:00 UTC
(2 hours ago)
Apr-20 @ 18:00 UTC
(37 minutes ago)
Apr-22 @ 00:00 UTC
(-1 days ago)
Apr-20 @ 18:00 to Apr-21 @ 02:00
TAF RKPK 201700Z 2018/2124 30006KT 9999 FEW030 TN11/2021Z TX25/2105Z
Wind Visibility Clouds
300° at 6 knots 10,000+ meters
  • Few at 3,000' AGL
Becoming Apr-21 @ 02:00 to Apr-21 @ 11:00
BECMG 2102/2103 18010KT
Wind Visibility Clouds
180° at 10 knots 10,000+ meters
  • Few at 3,000' AGL
Becoming Apr-21 @ 11:00 to Apr-22 @ 00:00
BECMG 2111/2112 30006KT
Wind Visibility Clouds
300° at 6 knots 10,000+ meters
  • Few at 3,000' AGL
TAF RKPK 201700Z 2018/2124 30006KT 9999 FEW030 TN11/2021Z TX25/2105Z BECMG 2102/2103 18010KT BECMG 2111/2112 30006KT
Issued Apr-20 @ 17:00 UTC
(2 hours ago)
Valid From Apr-20 @ 18:00 UTC
(37 minutes ago)
Valid To Apr-22 @ 00:00 UTC
(-1 days ago)
Apr-20 @ 18:00 - Apr-21 @ 02:00
Wind Visibility
300° at 6 knots 10,000+ meters
Clouds
  • Few at 3,000' AGL
Becoming Apr-21 @ 02:00 - Apr-21 @ 11:00
Wind Visibility
180° at 10 knots 10,000+ meters
Clouds
  • Few at 3,000' AGL
Becoming Apr-21 @ 11:00 - Apr-22 @ 00:00
Wind Visibility
300° at 6 knots 10,000+ meters
Clouds
  • Few at 3,000' AGL